Time;durP1;ratioP1;P1;durP2;ratioP2;P2;SDS_P1;SDS_P2;PMS_P1;PMS_P2;Temp;Humidity;BMP_temperature;BMP_pressure;BME280_temperature;BME280_humidity;BME280_pressure;Samples;Min_cycle;Max_cycle;Signal;HPM_P1;HPM_P2
2022/08/14 00:01:19;;;;;;;;;;;23.80;76.00;;;;;;5032328;28;20477;-72
2022/08/14 00:03:44;;;;;;;;;;;23.80;76.40;;;;;;5032141;28;19928;-72
2022/08/14 00:06:10;;;;;;;;;;;23.70;76.70;;;;;;5032330;28;19931;-72
2022/08/14 00:08:35;;;;;;;;;;;23.70;77.20;;;;;;5031951;28;19921;-72
2022/08/14 00:11:01;;;;;;;;;;;23.70;77.50;;;;;;5032134;28;19924;-72
2022/08/14 00:13:28;;;;;;;;;;;23.70;77.90;;;;;;5031430;28;19924;-72
2022/08/14 00:15:55;;;;;;;;;;;23.60;78.00;;;;;;5031988;28;20442;-72
2022/08/14 00:18:22;;;;;;;;;;;23.60;78.80;;;;;;5031951;28;19927;-72
2022/08/14 00:20:48;;;;;;;;;;;23.60;79.10;;;;;;5032199;28;19925;-72
2022/08/14 00:23:15;;;;;;;;;;;23.60;79.50;;;;;;5031898;28;19921;-72
2022/08/14 00:25:40;;;;;;;;;;;23.60;80.00;;;;;;5031618;28;19929;-72
2022/08/14 00:28:07;;;;;;;;;;;23.50;80.20;;;;;;5031831;28;19977;-72
2022/08/14 00:30:32;;;;;;;;;;;23.50;80.70;;;;;;5031292;28;19929;-72
2022/08/14 00:32:58;;;;;;;;;;;23.50;81.00;;;;;;5031196;28;20299;-72
2022/08/14 00:35:24;;;;;;;;;;;23.40;81.80;;;;;;5031059;28;19929;-72
2022/08/14 00:37:50;;;;;;;;;;;23.40;81.30;;;;;;5030858;28;19990;-72
2022/08/14 00:40:17;;;;;;;;;;;23.40;82.10;;;;;;5029634;28;19924;-73
2022/08/14 00:42:42;;;;;;;;;;;23.40;82.50;;;;;;5030804;28;20005;-73
2022/08/14 00:45:10;;;;;;;;;;;23.30;82.50;;;;;;5030854;28;20008;-72
2022/08/14 00:47:35;;;;;;;;;;;23.40;83.00;;;;;;5030643;28;19921;-72
2022/08/14 00:50:03;;;;;;;;;;;23.40;83.10;;;;;;5030209;28;20012;-71
2022/08/14 00:52:30;;;;;;;;;;;23.30;83.10;;;;;;5030620;28;20357;-71
2022/08/14 00:54:56;;;;;;;;;;;23.40;83.80;;;;;;5030548;28;19925;-72
2022/08/14 00:57:23;;;;;;;;;;;23.40;83.60;;;;;;5030282;28;19979;-72
2022/08/14 00:59:49;;;;;;;;;;;23.40;84.00;;;;;;5030569;28;19991;-72
2022/08/14 01:02:17;;;;;;;;;;;23.30;84.00;;;;;;5030147;28;20431;-72
2022/08/14 01:04:43;;;;;;;;;;;23.30;84.40;;;;;;5030705;28;20291;-72
2022/08/14 01:07:09;;;;;;;;;;;23.30;84.80;;;;;;5030744;28;19948;-72
2022/08/14 01:09:35;;;;;;;;;;;23.30;85.00;;;;;;5030077;28;19925;-71
2022/08/14 01:12:01;;;;;;;;;;;23.30;85.00;;;;;;5030277;28;19928;-72
2022/08/14 01:14:27;;;;;;;;;;;23.20;85.30;;;;;;5030253;28;19921;-72
2022/08/14 01:16:52;;;;;;;;;;;23.20;85.20;;;;;;5030611;28;20334;-72
2022/08/14 01:22:04;;;;;;;;;;;23.20;85.40;;;;;;5030830;28;20383;-72
2022/08/14 01:24:30;;;;;;;;;;;23.20;85.80;;;;;;5029646;28;19921;-72
2022/08/14 01:26:58;;;;;;;;;;;23.20;86.10;;;;;;5030912;28;20004;-72
2022/08/14 01:29:25;;;;;;;;;;;23.10;86.30;;;;;;5030349;28;19957;-71
2022/08/14 01:31:53;;;;;;;;;;;23.10;86.40;;;;;;5030684;28;20435;-71
2022/08/14 01:34:22;;;;;;;;;;;23.10;86.60;;;;;;5030735;28;19921;-72
2022/08/14 01:36:48;;;;;;;;;;;23.00;86.80;;;;;;5030779;28;19921;-72
2022/08/14 01:39:15;;;;;;;;;;;23.00;87.20;;;;;;5030436;28;19947;-72
2022/08/14 01:41:42;;;;;;;;;;;23.00;87.40;;;;;;5030629;28;19927;-72
2022/08/14 01:44:11;;;;;;;;;;;22.90;87.90;;;;;;5030437;28;20459;-72
2022/08/14 01:46:38;;;;;;;;;;;23.00;88.10;;;;;;5029210;28;20393;-72
2022/08/14 01:49:05;;;;;;;;;;;22.90;88.60;;;;;;5029847;28;20273;-72
2022/08/14 01:51:31;;;;;;;;;;;22.90;89.10;;;;;;5030142;28;20595;-72
2022/08/14 01:53:59;;;;;;;;;;;22.90;89.50;;;;;;5030538;28;20004;-72
2022/08/14 01:56:36;;;;;;;;;;;22.80;89.70;;;;;;5029922;28;20398;-71
2022/08/14 01:59:03;;;;;;;;;;;22.80;89.80;;;;;;5030703;28;19967;-72
2022/08/14 02:01:29;;;;;;;;;;;22.80;90.20;;;;;;5029930;28;20346;-73
2022/08/14 02:03:55;;;;;;;;;;;22.80;90.30;;;;;;5030630;28;20371;-72
2022/08/14 02:06:20;;;;;;;;;;;22.80;90.30;;;;;;5029909;28;19921;-72
2022/08/14 02:08:47;;;;;;;;;;;22.80;90.60;;;;;;5030307;28;20380;-72
2022/08/14 02:11:16;;;;;;;;;;;22.80;90.30;;;;;;5029715;28;20016;-73
2022/08/14 02:13:43;;;;;;;;;;;22.70;90.50;;;;;;5030083;28;19974;-72
2022/08/14 02:16:09;;;;;;;;;;;22.70;90.50;;;;;;5030293;28;19969;-71
2022/08/14 02:18:35;;;;;;;;;;;22.70;90.60;;;;;;5028738;28;19925;-72
2022/08/14 02:21:03;;;;;;;;;;;22.70;90.70;;;;;;5030038;28;19967;-72
2022/08/14 02:23:29;;;;;;;;;;;22.60;90.60;;;;;;5030127;28;19921;-73
2022/08/14 02:25:55;;;;;;;;;;;22.60;90.50;;;;;;5030503;28;19924;-72
2022/08/14 02:28:22;;;;;;;;;;;22.70;90.50;;;;;;5026540;28;20015;-71
2022/08/14 02:30:48;;;;;;;;;;;22.70;90.60;;;;;;5029182;28;19964;-72
2022/08/14 02:33:13;;;;;;;;;;;22.60;90.70;;;;;;5029011;28;20398;-71
2022/08/14 02:35:42;;;;;;;;;;;22.60;90.60;;;;;;5029132;28;19925;-71
2022/08/14 02:38:08;;;;;;;;;;;22.60;90.90;;;;;;5029369;28;20232;-72
2022/08/14 02:40:35;;;;;;;;;;;22.50;91.00;;;;;;5029390;28;19921;-72
2022/08/14 02:43:01;;;;;;;;;;;22.50;91.40;;;;;;5016089;28;19975;-72
2022/08/14 02:45:33;;;;;;;;;;;22.50;91.40;;;;;;5029248;28;19921;-71
2022/08/14 02:48:04;;;;;;;;;;;22.50;91.50;;;;;;5029117;28;19928;-72
2022/08/14 02:50:29;;;;;;;;;;;22.50;91.70;;;;;;5028935;28;19927;-72
2022/08/14 02:52:55;;;;;;;;;;;22.40;91.90;;;;;;5028762;28;20030;-71
2022/08/14 02:55:21;;;;;;;;;;;22.40;92.10;;;;;;5029163;28;19999;-72
2022/08/14 02:57:50;;;;;;;;;;;22.40;92.20;;;;;;5029007;28;19928;-72
2022/08/14 03:00:16;;;;;;;;;;;22.40;92.30;;;;;;5028914;28;19921;-72
2022/08/14 03:02:41;;;;;;;;;;;22.40;92.20;;;;;;5028894;28;19925;-71
2022/08/14 03:05:07;;;;;;;;;;;22.40;92.20;;;;;;5028699;28;19924;-71
2022/08/14 03:07:33;;;;;;;;;;;22.40;92.40;;;;;;5028824;28;20291;-72
2022/08/14 03:09:58;;;;;;;;;;;22.40;92.40;;;;;;5028490;28;19980;-72
2022/08/14 03:12:24;;;;;;;;;;;22.40;92.40;;;;;;5029080;28;20012;-71
2022/08/14 03:14:51;;;;;;;;;;;22.40;92.50;;;;;;5028860;28;19921;-71
2022/08/14 03:17:16;;;;;;;;;;;22.30;92.50;;;;;;5028864;28;19929;-72
2022/08/14 03:19:42;;;;;;;;;;;22.30;92.70;;;;;;5028423;28;19929;-72
2022/08/14 03:22:07;;;;;;;;;;;22.30;92.60;;;;;;5028762;28;20391;-71
2022/08/14 03:24:35;;;;;;;;;;;22.30;92.90;;;;;;5028740;28;19925;-72
2022/08/14 03:27:01;;;;;;;;;;;22.30;92.80;;;;;;5029140;28;19921;-72
2022/08/14 03:29:27;;;;;;;;;;;22.30;92.80;;;;;;5028412;28;20318;-72
2022/08/14 03:31:53;;;;;;;;;;;22.30;92.90;;;;;;5028655;28;19986;-71
2022/08/14 03:34:22;;;;;;;;;;;22.20;93.20;;;;;;5028151;28;20478;-72
2022/08/14 03:36:53;;;;;;;;;;;22.20;93.20;;;;;;5028842;28;20070;-72
2022/08/14 03:39:20;;;;;;;;;;;22.10;93.30;;;;;;5028220;28;19932;-73
2022/08/14 03:41:46;;;;;;;;;;;22.10;93.40;;;;;;5033027;28;19928;-72
2022/08/14 03:44:12;;;;;;;;;;;22.10;93.80;;;;;;5032279;28;20450;-72
2022/08/14 03:46:38;;;;;;;;;;;22.00;93.80;;;;;;5032630;28;20330;-72
2022/08/14 03:49:04;;;;;;;;;;;21.90;94.10;;;;;;5032533;28;19921;-72
2022/08/14 03:51:31;;;;;;;;;;;21.90;94.30;;;;;;5032700;28;19948;-72
2022/08/14 03:53:58;;;;;;;;;;;21.80;94.60;;;;;;5032553;28;19925;-73
2022/08/14 03:56:25;;;;;;;;;;;21.80;94.50;;;;;;5032666;28;19976;-72
2022/08/14 03:58:51;;;;;;;;;;;21.70;94.60;;;;;;5032618;28;20020;-72
2022/08/14 04:01:20;;;;;;;;;;;21.70;94.70;;;;;;5032593;28;19921;-72
2022/08/14 04:03:46;;;;;;;;;;;21.70;95.00;;;;;;5032850;28;19978;-72
2022/08/14 04:06:12;;;;;;;;;;;21.70;95.00;;;;;;5032382;28;19928;-72
2022/08/14 04:08:55;;;;;;;;;;;21.70;94.90;;;;;;5031972;28;19916;-74
2022/08/14 04:11:21;;;;;;;;;;;21.70;95.40;;;;;;5032197;28;19921;-72
2022/08/14 04:13:48;;;;;;;;;;;21.70;95.30;;;;;;5032116;28;20307;-72
2022/08/14 04:16:19;;;;;;;;;;;21.60;95.50;;;;;;5030766;28;20307;-72
2022/08/14 04:18:47;;;;;;;;;;;21.70;95.70;;;;;;5031951;28;20442;-72
2022/08/14 04:21:13;;;;;;;;;;;21.60;95.80;;;;;;5031921;28;19928;-73
2022/08/14 04:23:39;;;;;;;;;;;21.60;96.00;;;;;;5032311;28;19921;-72
2022/08/14 04:26:07;;;;;;;;;;;21.50;96.10;;;;;;5031687;28;19925;-72
2022/08/14 04:28:33;;;;;;;;;;;21.40;96.00;;;;;;5031909;28;20484;-72
2022/08/14 04:30:58;;;;;;;;;;;21.50;96.20;;;;;;5031931;28;19980;-72
2022/08/14 04:33:24;;;;;;;;;;;21.50;96.10;;;;;;5032226;28;19928;-72
2022/08/14 04:35:51;;;;;;;;;;;21.50;96.30;;;;;;5031327;28;19975;-73
2022/08/14 04:43:47;;;;;;;;;;;21.50;96.60;;;;;;5031791;28;19920;-72
2022/08/14 04:46:15;;;;;;;;;;;21.50;96.40;;;;;;5031767;28;19931;-72
2022/08/14 04:48:41;;;;;;;;;;;21.50;96.60;;;;;;5031234;28;19921;-72
2022/08/14 04:51:08;;;;;;;;;;;21.50;96.60;;;;;;5030521;28;19955;-72
2022/08/14 04:53:34;;;;;;;;;;;21.50;96.90;;;;;;5032110;28;20260;-73
2022/08/14 04:55:59;;;;;;;;;;;21.50;96.80;;;;;;5031392;28;19928;-72
2022/08/14 04:58:29;;;;;;;;;;;21.40;96.90;;;;;;5030995;28;20299;-72
2022/08/14 05:00:56;;;;;;;;;;;21.40;97.00;;;;;;5030991;28;19921;-73
2022/08/14 05:03:26;;;;;;;;;;;21.50;97.20;;;;;;5031235;28;20012;-73
2022/08/14 05:05:52;;;;;;;;;;;21.40;97.10;;;;;;5031346;28;19921;-72
2022/08/14 05:08:18;;;;;;;;;;;21.40;97.40;;;;;;5031433;28;19921;-72
2022/08/14 05:10:51;;;;;;;;;;;21.50;97.60;;;;;;5030675;28;19974;-72
2022/08/14 05:13:21;;;;;;;;;;;21.50;97.70;;;;;;5031194;28;20015;-73
2022/08/14 05:15:47;;;;;;;;;;;21.50;97.70;;;;;;5031478;28;20012;-73
2022/08/14 05:18:17;;;;;;;;;;;21.60;97.90;;;;;;5031059;28;19929;-72
2022/08/14 05:20:45;;;;;;;;;;;21.70;98.00;;;;;;5031163;28;20031;-72
2022/08/14 05:23:11;;;;;;;;;;;21.70;97.70;;;;;;5030251;28;19936;-73
2022/08/14 05:25:37;;;;;;;;;;;21.80;97.80;;;;;;5030996;28;19975;-72
2022/08/14 05:28:22;;;;;;;;;;;21.90;97.70;;;;;;5030912;28;20011;-72
2022/08/14 05:30:49;;;;;;;;;;;22.00;97.60;;;;;;5031097;28;19921;-73
2022/08/14 05:33:17;;;;;;;;;;;22.00;97.40;;;;;;5029429;28;19927;-72
2022/08/14 05:35:43;;;;;;;;;;;22.10;97.00;;;;;;5030230;28;19950;-73
2022/08/14 05:38:11;;;;;;;;;;;22.20;96.80;;;;;;5030984;28;19925;-73
2022/08/14 05:40:37;;;;;;;;;;;22.20;96.30;;;;;;5030510;28;19979;-71
2022/08/14 05:43:03;;;;;;;;;;;22.30;96.10;;;;;;5030880;28;19960;-74
2022/08/14 05:45:28;;;;;;;;;;;22.40;96.00;;;;;;5030651;28;20306;-73
2022/08/14 05:47:54;;;;;;;;;;;22.40;95.70;;;;;;5030744;28;19936;-73
2022/08/14 05:50:19;;;;;;;;;;;22.40;95.50;;;;;;5030194;28;20330;-73
2022/08/14 05:52:46;;;;;;;;;;;22.40;95.20;;;;;;5030066;28;21477;-74
2022/08/14 05:55:12;;;;;;;;;;;22.50;94.90;;;;;;5030530;28;19921;-73
2022/08/14 05:57:57;;;;;;;;;;;22.50;94.60;;;;;;5030313;28;19921;-74
2022/08/14 06:00:24;;;;;;;;;;;22.50;94.40;;;;;;5030069;28;20004;-73
2022/08/14 06:02:49;;;;;;;;;;;22.50;94.30;;;;;;5029976;28;20352;-73
2022/08/14 06:05:15;;;;;;;;;;;22.50;93.90;;;;;;5030431;28;20006;-73
2022/08/14 06:07:41;;;;;;;;;;;22.60;93.90;;;;;;5030346;28;19968;-73
2022/08/14 06:10:08;;;;;;;;;;;22.60;94.00;;;;;;5029641;28;20006;-73
2022/08/14 06:12:34;;;;;;;;;;;22.70;93.90;;;;;;5029782;28;19920;-73
2022/08/14 06:14:59;;;;;;;;;;;22.70;93.70;;;;;;5029729;28;19929;-73
2022/08/14 06:17:25;;;;;;;;;;;22.70;93.60;;;;;;5029931;28;19921;-73
2022/08/14 06:19:51;;;;;;;;;;;22.60;93.60;;;;;;5029875;28;21171;-73
2022/08/14 06:22:16;;;;;;;;;;;22.60;93.60;;;;;;5030120;28;19921;-73
2022/08/14 06:24:42;;;;;;;;;;;22.70;93.70;;;;;;5029483;28;19924;-74
2022/08/14 06:27:07;;;;;;;;;;;22.70;93.60;;;;;;5030012;28;19940;-73
2022/08/14 06:29:33;;;;;;;;;;;22.80;93.50;;;;;;5029572;28;20510;-74
2022/08/14 06:31:59;;;;;;;;;;;22.80;93.50;;;;;;5028561;28;19925;-73
2022/08/14 06:34:24;;;;;;;;;;;22.90;93.50;;;;;;5029758;28;19927;-73
2022/08/14 06:36:50;;;;;;;;;;;23.00;93.20;;;;;;5029496;28;20051;-73
2022/08/14 06:39:15;;;;;;;;;;;23.10;93.40;;;;;;5029581;28;19976;-73
2022/08/14 06:41:41;;;;;;;;;;;23.20;93.20;;;;;;5029764;28;20427;-73
2022/08/14 06:44:07;;;;;;;;;;;23.40;92.90;;;;;;5029670;28;19935;-74
2022/08/14 06:46:33;;;;;;;;;;;23.60;92.60;;;;;;5029584;28;20367;-74
2022/08/14 06:48:58;;;;;;;;;;;23.70;92.30;;;;;;5028967;28;20414;-73
2022/08/14 06:51:24;;;;;;;;;;;23.80;92.10;;;;;;5029318;28;19925;-74
2022/08/14 06:53:49;;;;;;;;;;;23.80;92.20;;;;;;5029153;28;19921;-73
2022/08/14 06:56:15;;;;;;;;;;;23.90;92.10;;;;;;5029703;28;19921;-73
2022/08/14 06:58:41;;;;;;;;;;;23.90;91.90;;;;;;5028969;28;19956;-73
2022/08/14 07:06:34;;;;;;;;;;;24.00;92.00;;;;;;5028445;28;20380;-73
2022/08/14 07:09:00;;;;;;;;;;;24.10;92.00;;;;;;5029662;28;19975;-73
2022/08/14 07:11:26;;;;;;;;;;;24.20;91.80;;;;;;5028838;28;20394;-74
2022/08/14 07:13:52;;;;;;;;;;;24.20;91.60;;;;;;5028355;28;19928;-74
2022/08/14 07:16:17;;;;;;;;;;;24.20;91.40;;;;;;5032135;28;19921;-73
2022/08/14 07:18:44;;;;;;;;;;;24.30;91.40;;;;;;5032178;28;19921;-73
2022/08/14 07:21:10;;;;;;;;;;;24.30;91.30;;;;;;5033167;28;19946;-74
2022/08/14 07:23:36;;;;;;;;;;;24.40;91.40;;;;;;5032937;28;19921;-74
2022/08/14 07:26:02;;;;;;;;;;;24.40;91.50;;;;;;5032781;28;19921;-73
2022/08/14 07:28:34;;;;;;;;;;;24.40;91.40;;;;;;5033061;28;20022;-73
2022/08/14 07:31:01;;;;;;;;;;;24.40;91.10;;;;;;5032798;28;19927;-73
2022/08/14 07:33:30;;;;;;;;;;;24.40;91.00;;;;;;5033427;28;20016;-73
2022/08/14 07:35:58;;;;;;;;;;;24.50;91.10;;;;;;5031887;28;20379;-73
2022/08/14 07:38:26;;;;;;;;;;;24.60;91.10;;;;;;5033187;28;19932;-73
2022/08/14 07:40:51;;;;;;;;;;;24.70;90.80;;;;;;5032867;28;19990;-73
2022/08/14 07:43:17;;;;;;;;;;;24.70;90.70;;;;;;5033191;28;19925;-74
2022/08/14 07:45:43;;;;;;;;;;;24.80;90.80;;;;;;5032407;28;19936;-73
2022/08/14 07:48:09;;;;;;;;;;;24.90;90.90;;;;;;5032955;28;20096;-73
2022/08/14 07:50:34;;;;;;;;;;;25.00;90.70;;;;;;5031385;28;19924;-74
2022/08/14 07:53:00;;;;;;;;;;;25.00;90.70;;;;;;5031172;28;19921;-73
2022/08/14 07:55:26;;;;;;;;;;;25.10;90.10;;;;;;5032201;28;19999;-73
2022/08/14 07:57:51;;;;;;;;;;;25.10;90.10;;;;;;5032449;28;19983;-73
2022/08/14 08:00:23;;;;;;;;;;;25.20;90.20;;;;;;5032754;28;19925;-73
2022/08/14 08:02:51;;;;;;;;;;;25.30;90.40;;;;;;5032779;28;19932;-74
2022/08/14 08:05:17;;;;;;;;;;;25.40;90.20;;;;;;5032705;28;19960;-74
2022/08/14 08:07:43;;;;;;;;;;;25.50;89.80;;;;;;5032535;28;19921;-73
2022/08/14 08:10:30;;;;;;;;;;;25.60;89.90;;;;;;5031896;28;19941;-73
2022/08/14 08:12:56;;;;;;;;;;;25.60;89.80;;;;;;5032292;28;20002;-73
2022/08/14 08:15:25;;;;;;;;;;;25.70;89.90;;;;;;5030841;28;20395;-74
2022/08/14 08:17:51;;;;;;;;;;;25.80;88.40;;;;;;5031157;28;19925;-73
2022/08/14 08:20:18;;;;;;;;;;;25.90;87.70;;;;;;5030837;28;19921;-73
2022/08/14 08:22:44;;;;;;;;;;;25.90;88.00;;;;;;5031240;28;20390;-74
2022/08/14 08:25:11;;;;;;;;;;;26.00;87.40;;;;;;5029538;28;19929;-74
2022/08/14 08:27:36;;;;;;;;;;;26.00;87.40;;;;;;5029869;28;20011;-74
2022/08/14 08:30:08;;;;;;;;;;;26.00;87.80;;;;;;5031092;28;20471;-73
2022/08/14 08:32:37;;;;;;;;;;;26.00;88.20;;;;;;5030652;28;20461;-73
2022/08/14 08:35:03;;;;;;;;;;;26.20;88.30;;;;;;5027162;28;20371;-74
2022/08/14 08:37:33;;;;;;;;;;;26.20;87.40;;;;;;5030012;28;19975;-71
2022/08/14 08:39:59;;;;;;;;;;;26.40;87.00;;;;;;5031900;28;20349;-71
2022/08/14 08:42:25;;;;;;;;;;;26.40;86.30;;;;;;5031677;28;20000;-71
2022/08/14 08:44:54;;;;;;;;;;;26.50;86.30;;;;;;5027837;28;19932;-71
2022/08/14 08:47:19;;;;;;;;;;;26.60;84.20;;;;;;5026431;28;20383;-71
2022/08/14 08:49:45;;;;;;;;;;;26.60;84.30;;;;;;5024062;28;19921;-71
2022/08/14 08:52:10;;;;;;;;;;;26.60;83.90;;;;;;5025953;28;19925;-71
2022/08/14 08:54:37;;;;;;;;;;;26.70;84.00;;;;;;5019717;28;19925;-71
2022/08/14 08:57:09;;;;;;;;;;;26.70;83.80;;;;;;5031544;28;20295;-72
2022/08/14 08:59:34;;;;;;;;;;;26.80;82.80;;;;;;5031646;28;19921;-71
2022/08/14 09:02:02;;;;;;;;;;;26.90;83.10;;;;;;5024898;28;19936;-72
2022/08/14 09:04:29;;;;;;;;;;;27.00;83.20;;;;;;5030712;28;19967;-72
2022/08/14 09:06:55;;;;;;;;;;;27.00;82.40;;;;;;5030764;28;19925;-72
2022/08/14 09:09:25;;;;;;;;;;;27.00;82.50;;;;;;5031308;28;19920;-72
2022/08/14 09:11:55;;;;;;;;;;;27.10;81.80;;;;;;5031365;28;19978;-72
2022/08/14 09:14:24;;;;;;;;;;;27.10;82.40;;;;;;5029554;28;19970;-72
2022/08/14 09:16:50;;;;;;;;;;;27.30;82.00;;;;;;5028425;28;19971;-72
2022/08/14 09:19:16;;;;;;;;;;;27.30;80.70;;;;;;5030290;28;19960;-72
2022/08/14 09:21:42;;;;;;;;;;;27.40;81.00;;;;;;5029105;28;19929;-72
2022/08/14 09:24:08;;;;;;;;;;;27.40;81.70;;;;;;5030255;28;19982;-72
2022/08/14 09:26:34;;;;;;;;;;;27.50;80.30;;;;;;5029147;28;19974;-72
2022/08/14 09:29:00;;;;;;;;;;;27.70;80.00;;;;;;5030651;28;19921;-71
2022/08/14 09:31:27;;;;;;;;;;;28.00;80.20;;;;;;5030907;28;19925;-72
2022/08/14 09:33:55;;;;;;;;;;;28.50;79.20;;;;;;5030574;28;20291;-72
2022/08/14 09:36:21;;;;;;;;;;;29.00;77.00;;;;;;5030444;28;19968;-71
2022/08/14 09:39:10;;;;;;;6.93;4.35;;;29.40;76.30;;;;;;5029705;28;19963;-72
2022/08/14 09:41:54;;;;;;;5.60;4.18;;;29.70;75.70;;;;;;5021315;28;20415;-73
2022/08/14 09:44:39;;;;;;;4.82;4.22;;;30.10;74.90;;;;;;5028457;28;20458;-72
2022/08/14 09:47:05;;;;;;;4.82;4.15;;;30.50;73.60;;;;;;5025168;28;20041;-72
2022/08/14 09:49:31;;;;;;;5.18;4.07;;;30.80;73.10;;;;;;5029770;28;20863;-72
2022/08/14 09:52:14;;;;;;;6.10;3.97;;;31.00;71.70;;;;;;5027940;28;20496;-72
2022/08/14 09:54:44;;;;;;;;;;;31.40;73.20;;;;;;5019359;28;20133;-72
2022/08/14 09:57:24;;;;;;;4.78;3.90;;;31.60;72.90;;;;;;5019872;28;19956;-73
2022/08/14 09:59:50;;;;;;;6.15;4.47;;;31.80;70.60;;;;;;5028615;28;20423;-73
2022/08/14 10:02:30;;;;;;;4.40;3.33;;;31.90;69.30;;;;;;5017088;28;20452;-72
2022/08/14 10:05:06;;;;;;;5.05;4.25;;;32.00;68.90;;;;;;5029468;28;20080;-73
2022/08/14 10:07:34;;;;;;;4.57;3.70;;;32.30;70.40;;;;;;5029508;28;20530;-72
2022/08/14 10:10:01;;;;;;;4.88;3.80;;;32.60;71.30;;;;;;5029024;28;20120;-72
2022/08/14 10:12:47;;;;;;;5.63;3.75;;;32.90;69.60;;;;;;5029566;28;20507;-73
2022/08/14 10:15:24;;;;;;;6.78;3.33;;;33.20;67.30;;;;;;5027173;28;20137;-73
2022/08/14 10:18:01;;;;;;;4.03;3.53;;;33.30;66.30;;;;;;5029494;28;20056;-72
2022/08/14 10:20:34;;;;;;;5.05;3.53;;;33.30;65.90;;;;;;5029841;28;20108;-72
2022/08/14 10:23:12;;;;;;;;;;;33.40;66.30;;;;;;5029204;28;20044;-72
2022/08/14 10:25:42;;;;;;;;;;;33.50;64.40;;;;;;5029029;28;19925;-72
2022/08/14 10:28:14;;;;;;;5.75;4.10;;;33.50;62.60;;;;;;5029249;28;19928;-72
2022/08/14 10:30:40;;;;;;;5.97;3.67;;;33.50;63.80;;;;;;5029393;28;20045;-72
2022/08/14 10:33:06;;;;;;;4.72;4.07;;;33.60;65.00;;;;;;5029036;28;20045;-72
2022/08/14 10:35:42;;;;;;;5.03;3.50;;;33.80;62.70;;;;;;5029140;28;20048;-72
2022/08/14 10:38:09;;;;;;;4.07;3.67;;;33.90;64.70;;;;;;5029280;28;20041;-72
2022/08/14 10:40:35;;;;;;;6.20;4.20;;;34.10;64.90;;;;;;5028998;28;20046;-72
2022/08/14 10:43:01;;;;;;;4.97;3.80;;;34.30;64.50;;;;;;5028271;28;20057;-72
2022/08/14 10:45:32;;;;;;;4.95;3.90;;;34.40;63.40;;;;;;5029189;28;20037;-72
2022/08/14 10:48:00;;;;;;;4.60;4.10;;;34.50;63.50;;;;;;5027661;28;21036;-73
2022/08/14 10:50:34;;;;;;;6.43;4.00;;;34.50;61.60;;;;;;5026793;28;20410;-73
2022/08/14 10:53:04;;;;;;;3.97;3.50;;;34.30;61.80;;;;;;5029006;28;20044;-72
2022/08/14 10:55:38;;;;;;;6.30;3.90;;;34.30;62.30;;;;;;5029060;28;20045;-72
2022/08/14 10:58:10;;;;;;;5.45;4.03;;;34.40;62.10;;;;;;5029202;28;20049;-72
2022/08/14 11:00:38;;;;;;;6.45;3.38;;;34.60;62.10;;;;;;5028797;28;20085;-72
2022/08/14 11:03:08;;;;;;;4.43;3.72;;;34.80;61.80;;;;;;5029040;28;20060;-72
2022/08/14 11:05:48;;;;;;;6.75;4.03;;;34.90;60.40;;;;;;5027202;28;20437;-72
2022/08/14 11:08:14;;;;;;;;;;;34.90;61.00;;;;;;5029181;28;20053;-73
2022/08/14 11:10:52;;;;;;;4.30;3.90;;;35.10;60.30;;;;;;5015070;28;20292;-72
2022/08/14 11:13:21;;;;;;;3.70;3.20;;;34.80;60.10;;;;;;5028650;28;20049;-72
2022/08/14 11:15:48;;;;;;;4.55;3.70;;;34.60;60.30;;;;;;5028451;28;20046;-72
2022/08/14 11:18:14;;;;;;;6.38;4.72;;;34.70;59.80;;;;;;5028655;28;20038;-72
2022/08/14 11:20:46;;;;;;;;;;;34.80;60.20;;;;;;5029202;28;20042;-72
2022/08/14 11:23:13;;;;;;;5.63;4.05;;;35.10;60.00;;;;;;5027802;28;19920;-73
2022/08/14 11:25:44;;;;;;;5.32;4.18;;;35.30;59.90;;;;;;5028809;28;20045;-72
2022/08/14 11:28:13;;;;;;;5.40;4.47;;;35.40;59.10;;;;;;5029025;28;20103;-72
2022/08/14 11:30:40;;;;;;;;;;;35.40;59.60;;;;;;5029496;28;20046;-73
2022/08/14 11:33:06;;;;;;;;;;;35.40;58.00;;;;;;5029137;28;19932;-73
2022/08/14 11:35:32;;;;;;;;;;;34.90;57.60;;;;;;5029086;28;19921;-72
2022/08/14 11:38:00;;;;;;;;;;;34.80;58.80;;;;;;5029261;28;19925;-72
2022/08/14 11:40:27;;;;;;;;;;;35.00;57.40;;;;;;5029243;28;19944;-72
2022/08/14 11:42:54;;;;;;;;;;;35.00;57.80;;;;;;5028804;28;19928;-73
2022/08/14 11:45:24;;;;;;;6.13;4.20;;;35.10;57.50;;;;;;5028335;28;20366;-72
2022/08/14 11:47:51;;;;;;;4.70;4.00;;;35.10;56.50;;;;;;5027233;28;20411;-72
2022/08/14 11:50:29;;;;;;;5.13;3.90;;;35.10;56.30;;;;;;5027305;28;20411;-73
2022/08/14 11:52:57;;;;;;;6.53;3.95;;;34.80;56.90;;;;;;5014959;28;20402;-73
2022/08/14 11:55:25;;;;;;;5.10;3.87;;;34.50;56.70;;;;;;5026845;28;20513;-72
2022/08/14 11:58:10;;;;;;;7.15;4.00;;;34.10;56.90;;;;;;5028772;28;20037;-72
2022/08/14 12:00:46;;;;;;;5.85;3.70;;;34.10;58.20;;;;;;5029219;28;20047;-73
2022/08/14 12:03:12;;;;;;;4.80;4.00;;;34.10;57.90;;;;;;5031885;28;20088;-72
2022/08/14 12:05:41;;;;;;;;;;;34.20;58.20;;;;;;5032159;28;20112;-72
2022/08/14 12:08:07;;;;;;;6.25;3.97;;;34.10;56.90;;;;;;5031385;28;20015;-73
2022/08/14 12:10:37;;;;;;;5.72;4.28;;;34.10;57.00;;;;;;5030740;28;20053;-72
2022/08/14 12:13:17;;;;;;;5.68;3.78;;;33.70;57.60;;;;;;5030058;28;20399;-72
2022/08/14 12:15:45;;;;;;;7.68;4.00;;;33.50;58.50;;;;;;5020526;28;20041;-72
2022/08/14 12:18:11;;;;;;;;;;;33.90;57.30;;;;;;5032020;28;20111;-73
2022/08/14 12:20:43;;;;;;;5.85;4.00;;;34.30;57.70;;;;;;5032062;28;19932;-72
2022/08/14 12:23:25;;;;;;;7.07;4.20;;;34.40;56.20;;;;;;5030133;28;20439;-72
2022/08/14 12:26:03;;;;;;;;;;;34.40;56.30;;;;;;5025555;28;20556;-73
2022/08/14 12:28:28;;;;;;;;;;;34.70;57.00;;;;;;5031721;28;19921;-72
2022/08/14 12:30:54;;;;;;;5.35;3.60;;;35.10;56.10;;;;;;5031512;28;19928;-72
2022/08/14 12:33:27;;;;;;;4.97;4.10;;;35.10;55.20;;;;;;5031364;28;20072;-73
2022/08/14 12:35:54;;;;;;;6.95;4.40;;;34.80;56.30;;;;;;5029780;28;20467;-73
2022/08/14 12:38:42;;;;;;;6.20;3.50;;;34.40;56.40;;;;;;5031653;28;20057;-72
2022/08/14 12:41:16;;;;;;;5.50;3.45;;;34.30;56.20;;;;;;5020022;28;20484;-73
2022/08/14 12:43:46;;;;;;;6.07;3.95;;;34.80;56.60;;;;;;5031127;28;20061;-73
2022/08/14 12:46:22;;;;;;;5.85;3.95;;;35.30;56.40;;;;;;5031160;28;20041;-73
2022/08/14 12:48:48;;;;;;;;;;;35.80;55.90;;;;;;5031221;28;20125;-73
2022/08/14 12:51:22;;;;;;;6.25;3.50;;;36.20;55.70;;;;;;5030129;28;20008;-73
2022/08/14 12:53:48;;;;;;;5.13;4.07;;;36.20;54.00;;;;;;5029484;28;20407;-73
2022/08/14 12:56:18;;;;;;;5.32;3.67;;;36.10;54.90;;;;;;5030023;28;20520;-73
2022/08/14 12:58:56;;;;;;;5.30;4.00;;;36.20;54.10;;;;;;5028370;28;20414;-72
2022/08/14 13:01:24;;;;;;;;;;;36.30;53.20;;;;;;5024796;28;20061;-72
2022/08/14 13:03:51;;;;;;;6.13;3.60;;;36.10;53.30;;;;;;5029895;28;19932;-72
2022/08/14 13:06:18;;;;;;;;;;;35.80;53.90;;;;;;5031666;28;20049;-73
2022/08/14 13:08:43;;;;;;;;;;;35.80;52.90;;;;;;5025161;28;19925;-73
2022/08/14 13:11:13;;;;;;;7.45;3.95;;;35.90;54.00;;;;;;5021983;28;19991;-72
2022/08/14 13:13:46;;;;;;;5.60;3.38;;;36.30;53.70;;;;;;5029791;28;20053;-72
2022/08/14 13:16:15;;;;;;;;;;;36.60;54.10;;;;;;5017772;28;20042;-73
2022/08/14 13:18:43;;;;;;;5.22;3.58;;;37.00;52.70;;;;;;5028802;28;20504;-73
2022/08/14 13:21:12;;;;;;;;;;;36.90;52.50;;;;;;5031181;28;20042;-73
2022/08/14 13:23:39;;;;;;;;;;;36.50;53.00;;;;;;5026349;28;19978;-73
2022/08/14 13:26:06;;;;;;;7.35;4.07;;;36.50;53.70;;;;;;5030442;28;19921;-73
2022/08/14 13:28:34;;;;;;;5.72;3.72;;;36.80;50.90;;;;;;5030417;28;20096;-73
2022/08/14 13:31:04;;;;;;;4.32;3.75;;;36.50;51.80;;;;;;5029277;28;20442;-73
2022/08/14 13:33:30;;;;;;;5.15;3.97;;;36.50;52.30;;;;;;5029158;28;20418;-73
2022/08/14 13:35:56;;;;;;;4.93;4.10;;;36.50;52.00;;;;;;5028738;28;20485;-73
2022/08/14 13:38:21;;;;;;;5.90;4.03;;;36.30;51.60;;;;;;5029027;28;20429;-72
2022/08/14 13:40:54;;;;;;;5.22;3.85;;;36.00;51.40;;;;;;5029588;28;20411;-72
2022/08/14 13:43:21;;;;;;;;;;;35.60;52.10;;;;;;5030836;28;20554;-72
2022/08/14 13:45:47;;;;;;;6.40;3.90;;;35.30;52.90;;;;;;5020645;28;19998;-72
2022/08/14 13:48:14;;;;;;;5.38;4.07;;;35.00;52.50;;;;;;5028787;28;20037;-72
2022/08/14 13:50:43;;;;;;;5.57;4.07;;;35.10;53.30;;;;;;5028907;28;20442;-72
2022/08/14 13:53:12;;;;;;;;;;;35.40;53.00;;;;;;5024511;28;20044;-73
2022/08/14 13:55:39;;;;;;;5.07;4.22;;;35.70;52.80;;;;;;5027962;28;19929;-72
2022/08/14 13:58:05;;;;;;;;;;;35.90;52.80;;;;;;5029593;28;20038;-73
2022/08/14 14:00:35;;;;;;;5.75;3.97;;;36.40;52.80;;;;;;5028671;28;20375;-72
2022/08/14 14:03:02;;;;;;;;;;;37.00;52.10;;;;;;5029330;28;20093;-72
2022/08/14 14:05:28;;;;;;;6.15;4.03;;;37.40;51.50;;;;;;5028384;28;19927;-72
2022/08/14 14:07:54;;;;;;;5.35;3.85;;;37.80;50.50;;;;;;5028228;28;20915;-72
2022/08/14 14:10:21;;;;;;;6.15;3.80;;;38.10;50.30;;;;;;5024918;28;20144;-72